createdAt,value
2022-11-10T00:03:02.652Z,31.90
2022-11-10T00:05:47.909Z,30.40
2022-11-10T00:08:33.262Z,30.10
2022-11-10T00:11:18.712Z,31.30
2022-11-10T00:14:22.643Z,30.10
2022-11-10T00:17:10.482Z,28.30
2022-11-10T00:19:56.165Z,38.10
2022-11-10T00:22:41.441Z,34.30
2022-11-10T00:25:27.029Z,34.50
2022-11-10T00:28:12.507Z,35.60
2022-11-10T00:30:58.598Z,34.60
2022-11-10T00:36:29.180Z,33.00
2022-11-10T00:39:14.224Z,24.60
2022-11-10T00:41:59.700Z,31.40
2022-11-10T00:44:46.312Z,30.90
2022-11-10T00:47:31.470Z,30.00
2022-11-10T00:50:18.089Z,28.30
2022-11-10T00:53:03.261Z,29.30
2022-11-10T00:55:49.357Z,27.00
2022-11-10T00:58:35.041Z,26.60
2022-11-10T01:01:23.829Z,26.80
2022-11-10T01:04:09.310Z,27.30
2022-11-10T01:06:54.277Z,28.30
2022-11-10T01:09:39.421Z,21.60
2022-11-10T01:12:29.205Z,25.00
2022-11-10T01:15:14.299Z,24.70
2022-11-10T01:17:59.580Z,26.90
2022-11-10T01:20:49.756Z,26.00
2022-11-10T01:23:35.611Z,25.70
2022-11-10T01:26:20.803Z,24.70
2022-11-10T01:29:06.250Z,25.10
2022-11-10T01:31:51.646Z,25.40
2022-11-10T01:34:36.630Z,25.60
2022-11-10T01:37:22.725Z,24.10
2022-11-10T01:40:09.375Z,24.60
2022-11-10T01:42:57.016Z,26.10
2022-11-10T01:45:59.134Z,24.20
2022-11-10T01:49:11.755Z,23.50
2022-11-10T01:52:12.386Z,24.10
2022-11-10T01:54:57.869Z,24.10
2022-11-10T01:57:44.277Z,25.20
2022-11-10T02:00:29.931Z,26.60
2022-11-10T02:03:29.976Z,23.50
2022-11-10T02:06:17.300Z,24.40
2022-11-10T02:09:03.500Z,24.00
2022-11-10T02:11:52.236Z,22.70
2022-11-10T02:14:38.348Z,22.70
2022-11-10T02:17:30.570Z,23.00
2022-11-10T02:20:20.065Z,22.30
2022-11-10T02:23:34.602Z,21.50
2022-11-10T02:26:26.913Z,22.20
2022-11-10T02:29:15.851Z,22.00
2022-11-10T02:32:01.113Z,21.40
2022-11-10T02:34:46.395Z,20.90
2022-11-10T02:37:31.946Z,21.00
2022-11-10T02:40:17.613Z,20.50
2022-11-10T02:43:12.564Z,20.50
2022-11-10T02:45:58.098Z,20.60
2022-11-10T02:48:43.186Z,20.90
2022-11-10T02:51:28.646Z,20.00
2022-11-10T02:54:14.063Z,22.10
2022-11-10T02:57:05.390Z,20.00
2022-11-10T02:59:50.877Z,19.20
2022-11-10T03:02:36.133Z,19.60
2022-11-10T03:05:21.401Z,20.20
2022-11-10T03:08:07.056Z,20.00
2022-11-10T03:10:56.265Z,18.50
2022-11-10T03:14:00.425Z,17.60
2022-11-10T03:19:31.689Z,19.20
2022-11-10T03:22:16.862Z,13.90
2022-11-10T03:25:06.545Z,18.50
2022-11-10T03:27:51.712Z,19.20
2022-11-10T03:30:38.493Z,18.50
2022-11-10T03:33:26.649Z,17.30
2022-11-10T03:36:15.302Z,18.50
2022-11-10T03:39:00.294Z,17.70
2022-11-10T03:41:45.694Z,16.80
2022-11-10T03:44:30.741Z,17.00
2022-11-10T03:47:16.034Z,14.00
2022-11-10T03:50:01.507Z,17.90
2022-11-10T03:52:50.611Z,18.00
2022-11-10T03:55:35.783Z,17.50
2022-11-10T03:58:21.160Z,18.00
2022-11-10T04:01:06.631Z,16.90
2022-11-10T04:09:41.701Z,17.50
2022-11-10T04:13:02.657Z,18.00
2022-11-10T04:15:47.921Z,17.20
2022-11-10T04:18:33.447Z,18.70
2022-11-10T04:21:18.836Z,20.30
2022-11-10T04:24:04.621Z,18.70
2022-11-10T04:26:53.517Z,20.80
2022-11-10T04:29:39.022Z,19.10
2022-11-10T04:32:24.475Z,19.10
2022-11-10T04:35:09.904Z,20.10
2022-11-10T04:37:55.302Z,17.60
2022-11-10T04:40:40.427Z,18.00
2022-11-10T04:43:30.116Z,18.00
2022-11-10T04:46:23.466Z,18.40
2022-11-10T04:49:10.332Z,19.90
2022-11-10T04:51:55.637Z,19.00
2022-11-10T04:54:41.208Z,16.60
2022-11-10T04:57:26.198Z,17.60
2022-11-10T05:00:14.958Z,15.70
2022-11-10T05:03:03.524Z,15.40
2022-11-10T05:05:49.212Z,12.60
2022-11-10T05:08:38.507Z,14.30
2022-11-10T05:11:23.449Z,13.20
2022-11-10T05:14:08.646Z,12.90
2022-11-10T05:16:53.775Z,12.50
2022-11-10T05:19:38.980Z,14.00
2022-11-10T05:22:24.166Z,13.30
2022-11-10T05:25:09.497Z,9.10
2022-11-10T05:27:54.898Z,12.10
2022-11-10T05:30:40.430Z,29.20
2022-11-10T05:33:26.026Z,24.60
2022-11-10T05:36:14.866Z,24.00
2022-11-10T05:38:59.914Z,20.50
2022-11-10T05:41:45.431Z,13.40
2022-11-10T05:44:30.521Z,12.10
2022-11-10T05:47:15.858Z,13.30
2022-11-10T05:50:01.326Z,13.20
2022-11-10T05:52:54.666Z,12.80
2022-11-10T05:55:40.099Z,18.60
2022-11-10T05:58:25.605Z,15.00
2022-11-10T06:01:10.745Z,20.80
2022-11-10T06:03:56.422Z,14.20
2022-11-10T06:06:41.943Z,12.90
2022-11-10T06:09:27.035Z,11.90
2022-11-10T06:12:12.567Z,11.10
2022-11-10T06:15:01.190Z,12.10
2022-11-10T06:17:47.102Z,11.70
2022-11-10T06:20:36.327Z,11.40
2022-11-10T06:23:21.825Z,11.40
2022-11-10T06:26:10.571Z,10.40
2022-11-10T06:28:55.570Z,17.20
2022-11-10T06:31:41.046Z,11.50
2022-11-10T06:34:30.019Z,10.70
2022-11-10T06:37:15.186Z,12.10
2022-11-10T06:40:00.423Z,11.90
2022-11-10T06:42:45.335Z,13.30
2022-11-10T06:45:30.782Z,16.40
2022-11-10T06:48:16.177Z,12.60
2022-11-10T06:51:04.463Z,10.80
2022-11-10T06:53:49.490Z,11.90
2022-11-10T06:56:34.727Z,10.60
2022-11-10T06:59:20.098Z,11.50
2022-11-10T07:02:13.401Z,14.00
2022-11-10T07:04:58.517Z,10.50
2022-11-10T07:07:43.589Z,9.50
2022-11-10T07:10:29.151Z,10.60
2022-11-10T07:13:14.468Z,10.00
2022-11-10T07:16:04.715Z,9.40
2022-11-10T07:18:49.993Z,9.80
2022-11-10T07:21:35.167Z,8.40
2022-11-10T07:24:24.278Z,9.30
2022-11-10T07:27:09.616Z,8.70
2022-11-10T07:29:54.457Z,9.90
2022-11-10T07:32:40.186Z,8.30
2022-11-10T07:35:29.243Z,8.70
2022-11-10T07:38:16.314Z,8.70
2022-11-10T07:41:01.631Z,7.60
2022-11-10T07:43:47.029Z,10.40
2022-11-10T07:46:32.494Z,11.30
2022-11-10T07:49:18.073Z,9.60
2022-11-10T07:52:03.305Z,7.70
2022-11-10T07:54:48.586Z,7.20
2022-11-10T07:57:34.209Z,7.40
2022-11-10T08:00:19.543Z,7.60
2022-11-10T08:03:13.589Z,6.90
2022-11-10T08:05:59.255Z,7.50
2022-11-10T08:08:47.671Z,7.30
2022-11-10T08:11:32.916Z,7.70
2022-11-10T08:14:18.199Z,7.00
2022-11-10T08:17:03.280Z,6.70
2022-11-10T08:19:48.582Z,6.10
2022-11-10T08:22:33.567Z,6.00
2022-11-10T08:25:19.022Z,6.20
2022-11-10T08:28:18.932Z,6.10
2022-11-10T08:31:06.394Z,6.40
2022-11-10T08:33:52.587Z,5.80
2022-11-10T08:36:37.651Z,6.40
2022-11-10T08:39:38.269Z,5.70
2022-11-10T08:42:27.827Z,6.80
2022-11-10T08:45:14.206Z,5.30
2022-11-10T08:48:06.292Z,5.60
2022-11-10T08:50:51.808Z,5.70
2022-11-10T08:53:37.210Z,5.40
2022-11-10T08:56:22.467Z,5.60
2022-11-10T08:59:07.771Z,5.10
2022-11-10T09:01:53.124Z,4.40
2022-11-10T09:04:38.793Z,4.30
2022-11-10T09:07:24.286Z,6.70
2022-11-10T09:10:09.826Z,4.80
2022-11-10T09:13:01.991Z,4.30
2022-11-10T09:15:50.735Z,3.60
2022-11-10T09:18:36.077Z,3.60
2022-11-10T09:21:24.944Z,3.50
2022-11-10T09:24:10.383Z,3.50
2022-11-10T09:26:55.816Z,3.20
2022-11-10T09:29:40.843Z,3.80
2022-11-10T09:32:26.153Z,3.50
2022-11-10T09:35:15.072Z,3.20
2022-11-10T09:38:00.400Z,3.20
2022-11-10T09:41:04.013Z,3.00
2022-11-10T09:44:04.055Z,3.30
2022-11-10T09:47:02.378Z,3.50
2022-11-10T09:49:57.030Z,3.60
2022-11-10T09:52:45.858Z,3.30
2022-11-10T09:55:46.497Z,3.70
2022-11-10T09:58:42.048Z,3.50
2022-11-10T10:01:51.300Z,3.20
2022-11-10T10:05:05.707Z,3.40
2022-11-10T10:11:24.112Z,3.30
2022-11-10T10:14:57.124Z,2.40
2022-11-10T10:17:56.525Z,3.00
2022-11-10T10:21:33.494Z,2.20
2022-11-10T10:24:23.050Z,2.50
2022-11-10T10:27:25.627Z,2.50
2022-11-10T10:30:21.337Z,3.50
2022-11-10T10:33:24.598Z,2.80
2022-11-10T10:36:32.132Z,3.10
2022-11-10T10:39:39.893Z,3.50
2022-11-10T10:42:36.342Z,3.30
2022-11-10T10:45:32.054Z,2.50
